sensor_id;sensor_type;location;lat;lon;timestamp;P1;durP1;ratioP1;P2;durP2;ratioP2
72603;SDS011;60645;56.968;24.196;2022-08-18T00:01:04;13.23;;;4.05;;
72603;SDS011;60645;56.968;24.196;2022-08-18T00:03:32;7.00;;;3.33;;
72603;SDS011;60645;56.968;24.196;2022-08-18T00:06:19;10.27;;;4.20;;
72603;SDS011;60645;56.968;24.196;2022-08-18T00:08:46;8.18;;;3.78;;
72603;SDS011;60645;56.968;24.196;2022-08-18T00:11:13;10.90;;;4.50;;
72603;SDS011;60645;56.968;24.196;2022-08-18T00:13:41;11.48;;;4.32;;
72603;SDS011;60645;56.968;24.196;2022-08-18T00:16:08;7.95;;;3.83;;
72603;SDS011;60645;56.968;24.196;2022-08-18T00:18:35;6.85;;;3.70;;
72603;SDS011;60645;56.968;24.196;2022-08-18T00:21:01;9.48;;;4.05;;
72603;SDS011;60645;56.968;24.196;2022-08-18T00:23:28;10.15;;;3.65;;
72603;SDS011;60645;56.968;24.196;2022-08-18T00:25:57;7.43;;;3.88;;
72603;SDS011;60645;56.968;24.196;2022-08-18T00:28:25;9.68;;;4.25;;
72603;SDS011;60645;56.968;24.196;2022-08-18T00:30:52;9.02;;;4.10;;
72603;SDS011;60645;56.968;24.196;2022-08-18T00:33:19;8.95;;;3.78;;
72603;SDS011;60645;56.968;24.196;2022-08-18T00:35:47;11.90;;;3.70;;
72603;SDS011;60645;56.968;24.196;2022-08-18T00:38:14;10.43;;;3.40;;
72603;SDS011;60645;56.968;24.196;2022-08-18T00:40:50;8.27;;;3.25;;
72603;SDS011;60645;56.968;24.196;2022-08-18T00:45:55;10.23;;;3.67;;
72603;SDS011;60645;56.968;24.196;2022-08-18T00:48:23;10.05;;;3.63;;
72603;SDS011;60645;56.968;24.196;2022-08-18T00:50:52;7.80;;;3.83;;
72603;SDS011;60645;56.968;24.196;2022-08-18T00:53:26;8.38;;;4.00;;
72603;SDS011;60645;56.968;24.196;2022-08-18T00:55:59;9.40;;;4.13;;
72603;SDS011;60645;56.968;24.196;2022-08-18T00:58:33;8.25;;;4.03;;
72603;SDS011;60645;56.968;24.196;2022-08-18T01:01:12;9.05;;;3.75;;
72603;SDS011;60645;56.968;24.196;2022-08-18T01:03:41;8.35;;;4.00;;
72603;SDS011;60645;56.968;24.196;2022-08-18T01:06:14;12.05;;;4.45;;
72603;SDS011;60645;56.968;24.196;2022-08-18T01:08:46;12.82;;;4.20;;
72603;SDS011;60645;56.968;24.196;2022-08-18T01:11:13;8.15;;;3.95;;
72603;SDS011;60645;56.968;24.196;2022-08-18T01:13:40;11.18;;;3.65;;
72603;SDS011;60645;56.968;24.196;2022-08-18T01:16:08;9.98;;;3.50;;
72603;SDS011;60645;56.968;24.196;2022-08-18T01:18:54;9.50;;;3.78;;
72603;SDS011;60645;56.968;24.196;2022-08-18T01:21:40;12.45;;;3.75;;
72603;SDS011;60645;56.968;24.196;2022-08-18T01:24:27;18.50;;;3.65;;
72603;SDS011;60645;56.968;24.196;2022-08-18T01:27:18;8.48;;;3.33;;
72603;SDS011;60645;56.968;24.196;2022-08-18T01:29:48;9.63;;;3.90;;
72603;SDS011;60645;56.968;24.196;2022-08-18T01:32:16;7.80;;;3.95;;
72603;SDS011;60645;56.968;24.196;2022-08-18T01:34:47;7.07;;;4.90;;
72603;SDS011;60645;56.968;24.196;2022-08-18T01:37:16;7.97;;;4.43;;
72603;SDS011;60645;56.968;24.196;2022-08-18T01:39:45;10.35;;;4.07;;
72603;SDS011;60645;56.968;24.196;2022-08-18T01:42:33;10.75;;;3.97;;
72603;SDS011;60645;56.968;24.196;2022-08-18T01:45:01;9.82;;;3.70;;
72603;SDS011;60645;56.968;24.196;2022-08-18T01:47:31;9.77;;;3.55;;
72603;SDS011;60645;56.968;24.196;2022-08-18T01:50:13;13.15;;;4.82;;
72603;SDS011;60645;56.968;24.196;2022-08-18T01:52:41;9.10;;;4.15;;
72603;SDS011;60645;56.968;24.196;2022-08-18T01:55:08;11.77;;;3.75;;
72603;SDS011;60645;56.968;24.196;2022-08-18T01:57:36;9.27;;;4.03;;
72603;SDS011;60645;56.968;24.196;2022-08-18T02:00:11;10.85;;;4.13;;
72603;SDS011;60645;56.968;24.196;2022-08-18T02:02:40;7.85;;;3.95;;
72603;SDS011;60645;56.968;24.196;2022-08-18T02:05:09;14.52;;;4.78;;
72603;SDS011;60645;56.968;24.196;2022-08-18T02:07:43;10.20;;;4.15;;
72603;SDS011;60645;56.968;24.196;2022-08-18T02:10:11;10.18;;;4.45;;
72603;SDS011;60645;56.968;24.196;2022-08-18T02:12:42;8.68;;;4.55;;
72603;SDS011;60645;56.968;24.196;2022-08-18T02:15:09;8.32;;;4.25;;
72603;SDS011;60645;56.968;24.196;2022-08-18T02:17:37;9.63;;;4.53;;
72603;SDS011;60645;56.968;24.196;2022-08-18T02:20:07;9.65;;;4.60;;
72603;SDS011;60645;56.968;24.196;2022-08-18T02:22:36;8.25;;;4.65;;
72603;SDS011;60645;56.968;24.196;2022-08-18T02:25:04;11.13;;;4.05;;
72603;SDS011;60645;56.968;24.196;2022-08-18T02:27:32;9.75;;;4.40;;
72603;SDS011;60645;56.968;24.196;2022-08-18T02:29:59;9.55;;;4.00;;
72603;SDS011;60645;56.968;24.196;2022-08-18T02:32:30;16.30;;;4.45;;
72603;SDS011;60645;56.968;24.196;2022-08-18T02:34:57;11.73;;;5.43;;
72603;SDS011;60645;56.968;24.196;2022-08-18T02:37:25;8.93;;;4.07;;
72603;SDS011;60645;56.968;24.196;2022-08-18T02:39:51;13.57;;;3.95;;
72603;SDS011;60645;56.968;24.196;2022-08-18T02:42:19;9.50;;;4.13;;
72603;SDS011;60645;56.968;24.196;2022-08-18T02:44:46;6.55;;;3.42;;
72603;SDS011;60645;56.968;24.196;2022-08-18T02:47:13;14.60;;;4.50;;
72603;SDS011;60645;56.968;24.196;2022-08-18T02:49:45;6.80;;;4.13;;
72603;SDS011;60645;56.968;24.196;2022-08-18T02:52:13;8.38;;;4.68;;
72603;SDS011;60645;56.968;24.196;2022-08-18T02:54:40;7.75;;;3.95;;
72603;SDS011;60645;56.968;24.196;2022-08-18T02:57:07;9.05;;;3.78;;
72603;SDS011;60645;56.968;24.196;2022-08-18T02:59:36;13.60;;;5.47;;
72603;SDS011;60645;56.968;24.196;2022-08-18T03:02:05;11.60;;;4.40;;
72603;SDS011;60645;56.968;24.196;2022-08-18T03:04:34;8.85;;;4.13;;
72603;SDS011;60645;56.968;24.196;2022-08-18T03:07:03;11.07;;;4.40;;
72603;SDS011;60645;56.968;24.196;2022-08-18T03:11:59;7.75;;;4.65;;
72603;SDS011;60645;56.968;24.196;2022-08-18T03:14:27;12.32;;;4.72;;
72603;SDS011;60645;56.968;24.196;2022-08-18T03:16:55;11.68;;;5.00;;
72603;SDS011;60645;56.968;24.196;2022-08-18T03:19:23;10.85;;;4.43;;
72603;SDS011;60645;56.968;24.196;2022-08-18T03:21:51;9.45;;;4.88;;
72603;SDS011;60645;56.968;24.196;2022-08-18T03:24:23;9.90;;;4.43;;
72603;SDS011;60645;56.968;24.196;2022-08-18T03:26:51;8.52;;;4.45;;
72603;SDS011;60645;56.968;24.196;2022-08-18T03:29:21;12.23;;;4.72;;
72603;SDS011;60645;56.968;24.196;2022-08-18T03:31:56;12.10;;;5.10;;
72603;SDS011;60645;56.968;24.196;2022-08-18T03:34:23;13.25;;;5.07;;
72603;SDS011;60645;56.968;24.196;2022-08-18T03:36:50;11.02;;;4.55;;
72603;SDS011;60645;56.968;24.196;2022-08-18T03:39:17;13.82;;;5.88;;
72603;SDS011;60645;56.968;24.196;2022-08-18T03:41:45;9.52;;;4.82;;
72603;SDS011;60645;56.968;24.196;2022-08-18T03:44:27;10.75;;;4.85;;
72603;SDS011;60645;56.968;24.196;2022-08-18T03:46:56;10.00;;;4.82;;
72603;SDS011;60645;56.968;24.196;2022-08-18T03:49:23;12.27;;;4.40;;
72603;SDS011;60645;56.968;24.196;2022-08-18T03:51:52;10.38;;;4.00;;
72603;SDS011;60645;56.968;24.196;2022-08-18T03:54:19;15.10;;;4.25;;
72603;SDS011;60645;56.968;24.196;2022-08-18T03:56:47;9.23;;;4.47;;
72603;SDS011;60645;56.968;24.196;2022-08-18T03:59:16;15.98;;;4.80;;
72603;SDS011;60645;56.968;24.196;2022-08-18T04:01:46;14.60;;;4.85;;
72603;SDS011;60645;56.968;24.196;2022-08-18T04:04:16;12.07;;;4.47;;
72603;SDS011;60645;56.968;24.196;2022-08-18T04:06:46;10.48;;;3.60;;
72603;SDS011;60645;56.968;24.196;2022-08-18T04:09:16;10.75;;;4.15;;
72603;SDS011;60645;56.968;24.196;2022-08-18T04:11:44;10.98;;;4.00;;
72603;SDS011;60645;56.968;24.196;2022-08-18T04:14:15;7.43;;;3.83;;
72603;SDS011;60645;56.968;24.196;2022-08-18T04:16:44;9.55;;;4.13;;
72603;SDS011;60645;56.968;24.196;2022-08-18T04:19:13;16.13;;;4.38;;
72603;SDS011;60645;56.968;24.196;2022-08-18T04:21:53;11.13;;;4.03;;
72603;SDS011;60645;56.968;24.196;2022-08-18T04:24:21;9.27;;;3.85;;
72603;SDS011;60645;56.968;24.196;2022-08-18T04:26:49;11.05;;;4.18;;
72603;SDS011;60645;56.968;24.196;2022-08-18T04:29:17;13.10;;;3.90;;
72603;SDS011;60645;56.968;24.196;2022-08-18T04:31:47;7.22;;;4.05;;
72603;SDS011;60645;56.968;24.196;2022-08-18T04:34:15;14.25;;;4.45;;
72603;SDS011;60645;56.968;24.196;2022-08-18T04:36:43;9.68;;;4.20;;
72603;SDS011;60645;56.968;24.196;2022-08-18T04:39:11;10.63;;;4.60;;
72603;SDS011;60645;56.968;24.196;2022-08-18T04:41:39;13.40;;;3.80;;
72603;SDS011;60645;56.968;24.196;2022-08-18T04:44:09;12.88;;;4.25;;
72603;SDS011;60645;56.968;24.196;2022-08-18T04:46:41;12.73;;;4.28;;
72603;SDS011;60645;56.968;24.196;2022-08-18T04:49:11;16.30;;;4.30;;
72603;SDS011;60645;56.968;24.196;2022-08-18T04:51:40;14.75;;;4.00;;
72603;SDS011;60645;56.968;24.196;2022-08-18T04:54:29;10.93;;;3.47;;
72603;SDS011;60645;56.968;24.196;2022-08-18T04:57:10;12.50;;;4.78;;
72603;SDS011;60645;56.968;24.196;2022-08-18T04:59:41;16.92;;;4.80;;
72603;SDS011;60645;56.968;24.196;2022-08-18T05:02:11;16.40;;;4.32;;
72603;SDS011;60645;56.968;24.196;2022-08-18T05:04:40;11.68;;;4.68;;
72603;SDS011;60645;56.968;24.196;2022-08-18T05:07:13;11.38;;;4.35;;
72603;SDS011;60645;56.968;24.196;2022-08-18T05:09:42;14.13;;;4.85;;
72603;SDS011;60645;56.968;24.196;2022-08-18T05:12:10;11.68;;;4.40;;
72603;SDS011;60645;56.968;24.196;2022-08-18T05:14:39;18.38;;;4.07;;
72603;SDS011;60645;56.968;24.196;2022-08-18T05:17:07;17.38;;;5.07;;
72603;SDS011;60645;56.968;24.196;2022-08-18T05:19:34;13.00;;;3.88;;
72603;SDS011;60645;56.968;24.196;2022-08-18T05:22:07;13.05;;;5.72;;
72603;SDS011;60645;56.968;24.196;2022-08-18T05:24:36;17.52;;;4.75;;
72603;SDS011;60645;56.968;24.196;2022-08-18T05:27:04;14.02;;;4.40;;
72603;SDS011;60645;56.968;24.196;2022-08-18T05:29:32;14.25;;;4.68;;
72603;SDS011;60645;56.968;24.196;2022-08-18T05:32:11;19.35;;;4.68;;
72603;SDS011;60645;56.968;24.196;2022-08-18T05:35:03;18.38;;;5.43;;
72603;SDS011;60645;56.968;24.196;2022-08-18T05:37:38;16.38;;;4.65;;
72603;SDS011;60645;56.968;24.196;2022-08-18T05:40:10;14.63;;;4.22;;
72603;SDS011;60645;56.968;24.196;2022-08-18T05:42:40;20.30;;;5.10;;
72603;SDS011;60645;56.968;24.196;2022-08-18T05:45:10;15.80;;;4.10;;
72603;SDS011;60645;56.968;24.196;2022-08-18T05:47:38;14.93;;;4.22;;
72603;SDS011;60645;56.968;24.196;2022-08-18T05:50:13;18.17;;;4.50;;
72603;SDS011;60645;56.968;24.196;2022-08-18T05:52:50;18.70;;;4.53;;
72603;SDS011;60645;56.968;24.196;2022-08-18T05:55:30;14.63;;;3.95;;
72603;SDS011;60645;56.968;24.196;2022-08-18T05:58:43;15.13;;;4.35;;
72603;SDS011;60645;56.968;24.196;2022-08-18T06:01:16;11.98;;;4.63;;
72603;SDS011;60645;56.968;24.196;2022-08-18T06:04:00;14.23;;;4.68;;
72603;SDS011;60645;56.968;24.196;2022-08-18T06:06:32;17.60;;;4.40;;
72603;SDS011;60645;56.968;24.196;2022-08-18T06:11:29;14.43;;;4.20;;
72603;SDS011;60645;56.968;24.196;2022-08-18T06:13:55;14.43;;;4.53;;
72603;SDS011;60645;56.968;24.196;2022-08-18T06:16:41;12.07;;;4.28;;
72603;SDS011;60645;56.968;24.196;2022-08-18T06:24:32;116.85;;;9.50;;
72603;SDS011;60645;56.968;24.196;2022-08-18T06:32:27;21.83;;;4.85;;
72603;SDS011;60645;56.968;24.196;2022-08-18T06:35:38;23.40;;;5.13;;
72603;SDS011;60645;56.968;24.196;2022-08-18T06:41:00;34.13;;;5.93;;
72603;SDS011;60645;56.968;24.196;2022-08-18T06:43:30;35.90;;;5.40;;
72603;SDS011;60645;56.968;24.196;2022-08-18T06:46:00;24.35;;;5.00;;
72603;SDS011;60645;56.968;24.196;2022-08-18T06:48:40;29.75;;;5.07;;
72603;SDS011;60645;56.968;24.196;2022-08-18T06:51:13;21.38;;;5.18;;
72603;SDS011;60645;56.968;24.196;2022-08-18T06:56:23;21.05;;;4.53;;
72603;SDS011;60645;56.968;24.196;2022-08-18T07:01:54;25.42;;;4.75;;
72603;SDS011;60645;56.968;24.196;2022-08-18T07:04:31;21.20;;;4.32;;
72603;SDS011;60645;56.968;24.196;2022-08-18T07:09:40;17.73;;;4.50;;
72603;SDS011;60645;56.968;24.196;2022-08-18T07:12:07;18.45;;;4.60;;
72603;SDS011;60645;56.968;24.196;2022-08-18T07:14:44;14.52;;;4.13;;
72603;SDS011;60645;56.968;24.196;2022-08-18T07:17:19;22.48;;;4.57;;
72603;SDS011;60645;56.968;24.196;2022-08-18T07:25:30;11.93;;;3.65;;
72603;SDS011;60645;56.968;24.196;2022-08-18T07:28:03;18.63;;;4.75;;
72603;SDS011;60645;56.968;24.196;2022-08-18T07:30:32;17.63;;;4.63;;
72603;SDS011;60645;56.968;24.196;2022-08-18T07:35:50;13.57;;;4.63;;
72603;SDS011;60645;56.968;24.196;2022-08-18T07:38:29;13.23;;;4.60;;
72603;SDS011;60645;56.968;24.196;2022-08-18T07:41:18;16.75;;;4.80;;
72603;SDS011;60645;56.968;24.196;2022-08-18T07:48:51;16.00;;;4.13;;
72603;SDS011;60645;56.968;24.196;2022-08-18T07:51:39;15.55;;;4.45;;
72603;SDS011;60645;56.968;24.196;2022-08-18T08:02:32;13.93;;;4.03;;
72603;SDS011;60645;56.968;24.196;2022-08-18T08:08:39;11.57;;;4.18;;
72603;SDS011;60645;56.968;24.196;2022-08-18T08:11:40;11.05;;;4.00;;
72603;SDS011;60645;56.968;24.196;2022-08-18T08:20:11;11.68;;;4.15;;
72603;SDS011;60645;56.968;24.196;2022-08-18T08:31:11;18.77;;;4.45;;
72603;SDS011;60645;56.968;24.196;2022-08-18T08:36:39;12.02;;;4.53;;
72603;SDS011;60645;56.968;24.196;2022-08-18T08:39:16;10.77;;;5.05;;
72603;SDS011;60645;56.968;24.196;2022-08-18T08:41:58;17.48;;;4.38;;
72603;SDS011;60645;56.968;24.196;2022-08-18T08:44:59;12.25;;;4.30;;
72603;SDS011;60645;56.968;24.196;2022-08-18T08:47:37;15.55;;;4.35;;
72603;SDS011;60645;56.968;24.196;2022-08-18T08:52:41;12.68;;;4.90;;
72603;SDS011;60645;56.968;24.196;2022-08-18T08:55:22;13.18;;;5.22;;
72603;SDS011;60645;56.968;24.196;2022-08-18T09:00:40;8.38;;;4.53;;
72603;SDS011;60645;56.968;24.196;2022-08-18T09:03:17;9.23;;;5.40;;
72603;SDS011;60645;56.968;24.196;2022-08-18T09:17:30;12.38;;;4.03;;
72603;SDS011;60645;56.968;24.196;2022-08-18T09:23:27;14.05;;;4.47;;
72603;SDS011;60645;56.968;24.196;2022-08-18T09:29:48;7.22;;;3.80;;
72603;SDS011;60645;56.968;24.196;2022-08-18T09:40:57;11.57;;;4.05;;
72603;SDS011;60645;56.968;24.196;2022-08-18T09:44:06;6.93;;;3.40;;
72603;SDS011;60645;56.968;24.196;2022-08-18T09:54:30;12.13;;;3.72;;
72603;SDS011;60645;56.968;24.196;2022-08-18T10:02:04;10.55;;;4.03;;
72603;SDS011;60645;56.968;24.196;2022-08-18T10:04:44;12.10;;;3.45;;
72603;SDS011;60645;56.968;24.196;2022-08-18T10:21:12;10.27;;;4.07;;
72603;SDS011;60645;56.968;24.196;2022-08-18T10:26:57;10.35;;;3.92;;
72603;SDS011;60645;56.968;24.196;2022-08-18T10:37:41;12.07;;;4.18;;
72603;SDS011;60645;56.968;24.196;2022-08-18T10:40:17;6.82;;;4.10;;
72603;SDS011;60645;56.968;24.196;2022-08-18T10:46:02;6.75;;;3.97;;
72603;SDS011;60645;56.968;24.196;2022-08-18T10:48:57;9.02;;;4.28;;
72603;SDS011;60645;56.968;24.196;2022-08-18T10:58:15;9.05;;;4.30;;
72603;SDS011;60645;56.968;24.196;2022-08-18T11:00:21;11.68;;;4.88;;
72603;SDS011;60645;56.968;24.196;2022-08-18T11:06:01;8.98;;;4.07;;
72603;SDS011;60645;56.968;24.196;2022-08-18T11:08:29;9.55;;;4.40;;
72603;SDS011;60645;56.968;24.196;2022-08-18T11:11:06;7.97;;;3.85;;
72603;SDS011;60645;56.968;24.196;2022-08-18T11:19:37;13.13;;;4.50;;
72603;SDS011;60645;56.968;24.196;2022-08-18T11:25:21;11.60;;;4.38;;
72603;SDS011;60645;56.968;24.196;2022-08-18T11:27:48;9.57;;;4.15;;
72603;SDS011;60645;56.968;24.196;2022-08-18T11:30:18;14.10;;;4.47;;
72603;SDS011;60645;56.968;24.196;2022-08-18T11:32:57;9.68;;;4.25;;
72603;SDS011;60645;56.968;24.196;2022-08-18T11:35:30;10.43;;;3.78;;
72603;SDS011;60645;56.968;24.196;2022-08-18T11:38:12;14.32;;;3.38;;
72603;SDS011;60645;56.968;24.196;2022-08-18T11:40:50;10.75;;;4.00;;
72603;SDS011;60645;56.968;24.196;2022-08-18T11:43:37;9.82;;;3.42;;
72603;SDS011;60645;56.968;24.196;2022-08-18T11:54:01;8.18;;;3.72;;
72603;SDS011;60645;56.968;24.196;2022-08-18T11:56:37;7.22;;;3.70;;
72603;SDS011;60645;56.968;24.196;2022-08-18T12:02:14;5.93;;;3.15;;
72603;SDS011;60645;56.968;24.196;2022-08-18T12:04:43;7.57;;;3.47;;
72603;SDS011;60645;56.968;24.196;2022-08-18T12:07:34;6.72;;;3.47;;
72603;SDS011;60645;56.968;24.196;2022-08-18T12:12:51;8.02;;;3.50;;
72603;SDS011;60645;56.968;24.196;2022-08-18T12:15:28;8.23;;;3.60;;
72603;SDS011;60645;56.968;24.196;2022-08-18T12:18:17;8.15;;;3.75;;
72603;SDS011;60645;56.968;24.196;2022-08-18T12:20:58;17.35;;;4.18;;
72603;SDS011;60645;56.968;24.196;2022-08-18T12:23:47;14.88;;;3.80;;
72603;SDS011;60645;56.968;24.196;2022-08-18T12:26:18;18.00;;;4.07;;
72603;SDS011;60645;56.968;24.196;2022-08-18T12:29:05;8.98;;;3.42;;
72603;SDS011;60645;56.968;24.196;2022-08-18T12:31:34;11.48;;;3.95;;
72603;SDS011;60645;56.968;24.196;2022-08-18T12:34:13;9.10;;;3.00;;
72603;SDS011;60645;56.968;24.196;2022-08-18T12:36:40;12.60;;;4.15;;
72603;SDS011;60645;56.968;24.196;2022-08-18T12:39:08;9.20;;;3.30;;
72603;SDS011;60645;56.968;24.196;2022-08-18T12:41:36;9.90;;;3.47;;
72603;SDS011;60645;56.968;24.196;2022-08-18T12:44:03;9.48;;;3.28;;
72603;SDS011;60645;56.968;24.196;2022-08-18T12:46:38;4.57;;;2.53;;
72603;SDS011;60645;56.968;24.196;2022-08-18T12:51:45;14.75;;;3.20;;
72603;SDS011;60645;56.968;24.196;2022-08-18T12:54:16;9.82;;;3.08;;
72603;SDS011;60645;56.968;24.196;2022-08-18T12:56:45;6.18;;;2.92;;
72603;SDS011;60645;56.968;24.196;2022-08-18T12:59:15;7.90;;;2.30;;
72603;SDS011;60645;56.968;24.196;2022-08-18T13:01:42;16.65;;;3.63;;
72603;SDS011;60645;56.968;24.196;2022-08-18T13:04:09;8.23;;;3.25;;
72603;SDS011;60645;56.968;24.196;2022-08-18T13:06:40;8.10;;;3.22;;
72603;SDS011;60645;56.968;24.196;2022-08-18T13:09:26;7.55;;;3.65;;
72603;SDS011;60645;56.968;24.196;2022-08-18T13:12:07;9.82;;;3.63;;
72603;SDS011;60645;56.968;24.196;2022-08-18T13:14:40;9.15;;;3.63;;
72603;SDS011;60645;56.968;24.196;2022-08-18T13:17:08;7.30;;;3.20;;
72603;SDS011;60645;56.968;24.196;2022-08-18T13:19:56;7.85;;;3.03;;
72603;SDS011;60645;56.968;24.196;2022-08-18T13:22:23;8.98;;;3.95;;
72603;SDS011;60645;56.968;24.196;2022-08-18T13:24:58;8.73;;;3.45;;
72603;SDS011;60645;56.968;24.196;2022-08-18T13:27:26;11.10;;;3.05;;
72603;SDS011;60645;56.968;24.196;2022-08-18T13:30:00;12.68;;;3.80;;
72603;SDS011;60645;56.968;24.196;2022-08-18T13:32:27;9.32;;;3.20;;
72603;SDS011;60645;56.968;24.196;2022-08-18T13:35:12;12.45;;;3.53;;
72603;SDS011;60645;56.968;24.196;2022-08-18T13:37:41;12.38;;;3.40;;
72603;SDS011;60645;56.968;24.196;2022-08-18T13:40:09;8.85;;;3.20;;
72603;SDS011;60645;56.968;24.196;2022-08-18T13:42:42;14.40;;;3.63;;
72603;SDS011;60645;56.968;24.196;2022-08-18T13:45:18;7.32;;;3.72;;
72603;SDS011;60645;56.968;24.196;2022-08-18T13:47:51;27.00;;;4.55;;
72603;SDS011;60645;56.968;24.196;2022-08-18T13:50:19;8.93;;;3.60;;
72603;SDS011;60645;56.968;24.196;2022-08-18T13:52:55;7.50;;;2.90;;
72603;SDS011;60645;56.968;24.196;2022-08-18T13:55:26;19.92;;;3.40;;
72603;SDS011;60645;56.968;24.196;2022-08-18T13:57:54;8.30;;;3.42;;
72603;SDS011;60645;56.968;24.196;2022-08-18T14:00:22;10.23;;;3.50;;
72603;SDS011;60645;56.968;24.196;2022-08-18T14:02:56;10.20;;;3.33;;
72603;SDS011;60645;56.968;24.196;2022-08-18T14:05:28;8.55;;;3.35;;
72603;SDS011;60645;56.968;24.196;2022-08-18T14:08:16;19.45;;;3.85;;
72603;SDS011;60645;56.968;24.196;2022-08-18T14:10:48;13.10;;;3.45;;
72603;SDS011;60645;56.968;24.196;2022-08-18T14:13:18;10.48;;;3.58;;
72603;SDS011;60645;56.968;24.196;2022-08-18T14:15:51;10.10;;;3.35;;
72603;SDS011;60645;56.968;24.196;2022-08-18T14:18:24;7.40;;;3.70;;
72603;SDS011;60645;56.968;24.196;2022-08-18T14:20:56;14.23;;;3.22;;
72603;SDS011;60645;56.968;24.196;2022-08-18T14:23:48;11.07;;;3.33;;
72603;SDS011;60645;56.968;24.196;2022-08-18T14:26:53;9.23;;;3.42;;
72603;SDS011;60645;56.968;24.196;2022-08-18T14:29:20;9.10;;;3.25;;
72603;SDS011;60645;56.968;24.196;2022-08-18T14:32:08;10.20;;;4.28;;
72603;SDS011;60645;56.968;24.196;2022-08-18T14:34:43;14.10;;;3.42;;
72603;SDS011;60645;56.968;24.196;2022-08-18T14:37:16;7.97;;;3.17;;
72603;SDS011;60645;56.968;24.196;2022-08-18T14:39:43;12.50;;;4.07;;
72603;SDS011;60645;56.968;24.196;2022-08-18T14:42:15;7.35;;;3.13;;
72603;SDS011;60645;56.968;24.196;2022-08-18T14:44:58;7.88;;;3.25;;
72603;SDS011;60645;56.968;24.196;2022-08-18T14:47:43;9.60;;;3.67;;
72603;SDS011;60645;56.968;24.196;2022-08-18T14:50:15;7.78;;;3.67;;
72603;SDS011;60645;56.968;24.196;2022-08-18T14:52:44;12.52;;;3.40;;
72603;SDS011;60645;56.968;24.196;2022-08-18T14:55:16;16.23;;;5.25;;
72603;SDS011;60645;56.968;24.196;2022-08-18T14:57:44;11.45;;;3.50;;
72603;SDS011;60645;56.968;24.196;2022-08-18T15:00:14;12.88;;;3.72;;
72603;SDS011;60645;56.968;24.196;2022-08-18T15:02:46;15.07;;;4.20;;
72603;SDS011;60645;56.968;24.196;2022-08-18T15:05:14;12.38;;;3.90;;
72603;SDS011;60645;56.968;24.196;2022-08-18T15:07:45;13.52;;;4.15;;
72603;SDS011;60645;56.968;24.196;2022-08-18T15:10:13;19.73;;;3.33;;
72603;SDS011;60645;56.968;24.196;2022-08-18T15:12:45;13.73;;;3.92;;
72603;SDS011;60645;56.968;24.196;2022-08-18T15:15:12;16.83;;;3.88;;
72603;SDS011;60645;56.968;24.196;2022-08-18T15:17:43;12.02;;;4.03;;
72603;SDS011;60645;56.968;24.196;2022-08-18T15:20:15;13.52;;;3.90;;
72603;SDS011;60645;56.968;24.196;2022-08-18T15:22:44;9.20;;;3.58;;
72603;SDS011;60645;56.968;24.196;2022-08-18T15:25:29;11.30;;;3.30;;
72603;SDS011;60645;56.968;24.196;2022-08-18T15:28:07;15.00;;;3.95;;
72603;SDS011;60645;56.968;24.196;2022-08-18T15:30:45;10.25;;;3.50;;
72603;SDS011;60645;56.968;24.196;2022-08-18T15:33:16;12.05;;;4.00;;
72603;SDS011;60645;56.968;24.196;2022-08-18T15:35:49;6.57;;;3.67;;
72603;SDS011;60645;56.968;24.196;2022-08-18T15:38:17;11.93;;;3.83;;
72603;SDS011;60645;56.968;24.196;2022-08-18T15:40:53;8.95;;;4.03;;
72603;SDS011;60645;56.968;24.196;2022-08-18T15:43:27;12.68;;;3.83;;
72603;SDS011;60645;56.968;24.196;2022-08-18T15:45:57;11.43;;;3.80;;
72603;SDS011;60645;56.968;24.196;2022-08-18T15:48:28;11.05;;;3.85;;
72603;SDS011;60645;56.968;24.196;2022-08-18T15:50:55;7.75;;;4.20;;
72603;SDS011;60645;56.968;24.196;2022-08-18T15:53:36;8.10;;;3.95;;
72603;SDS011;60645;56.968;24.196;2022-08-18T15:56:16;13.60;;;4.65;;
72603;SDS011;60645;56.968;24.196;2022-08-18T15:58:46;14.32;;;4.35;;
72603;SDS011;60645;56.968;24.196;2022-08-18T16:01:15;16.17;;;4.60;;
72603;SDS011;60645;56.968;24.196;2022-08-18T16:03:57;14.57;;;4.78;;
72603;SDS011;60645;56.968;24.196;2022-08-18T16:06:26;15.70;;;4.47;;
72603;SDS011;60645;56.968;24.196;2022-08-18T16:08:58;14.90;;;4.25;;
72603;SDS011;60645;56.968;24.196;2022-08-18T16:11:26;8.90;;;4.57;;
72603;SDS011;60645;56.968;24.196;2022-08-18T16:13:54;12.82;;;4.15;;
72603;SDS011;60645;56.968;24.196;2022-08-18T16:16:24;14.57;;;5.10;;
72603;SDS011;60645;56.968;24.196;2022-08-18T16:19:01;15.07;;;4.85;;
72603;SDS011;60645;56.968;24.196;2022-08-18T16:21:29;13.40;;;4.72;;
72603;SDS011;60645;56.968;24.196;2022-08-18T16:23:56;11.30;;;4.47;;
72603;SDS011;60645;56.968;24.196;2022-08-18T16:26:23;12.35;;;5.07;;
72603;SDS011;60645;56.968;24.196;2022-08-18T16:28:51;12.77;;;4.75;;
72603;SDS011;60645;56.968;24.196;2022-08-18T16:31:22;8.77;;;4.90;;
72603;SDS011;60645;56.968;24.196;2022-08-18T16:33:51;16.27;;;4.93;;
72603;SDS011;60645;56.968;24.196;2022-08-18T16:36:19;14.02;;;5.47;;
72603;SDS011;60645;56.968;24.196;2022-08-18T16:38:50;12.93;;;5.85;;
72603;SDS011;60645;56.968;24.196;2022-08-18T16:41:19;16.17;;;5.70;;
72603;SDS011;60645;56.968;24.196;2022-08-18T16:43:46;15.00;;;6.22;;
72603;SDS011;60645;56.968;24.196;2022-08-18T16:46:17;13.07;;;5.18;;
72603;SDS011;60645;56.968;24.196;2022-08-18T16:48:52;12.90;;;4.82;;
72603;SDS011;60645;56.968;24.196;2022-08-18T16:51:20;16.45;;;6.03;;
72603;SDS011;60645;56.968;24.196;2022-08-18T16:53:49;15.68;;;5.70;;
72603;SDS011;60645;56.968;24.196;2022-08-18T16:56:19;13.80;;;5.45;;
72603;SDS011;60645;56.968;24.196;2022-08-18T16:58:48;14.45;;;5.68;;
72603;SDS011;60645;56.968;24.196;2022-08-18T17:01:34;12.82;;;6.47;;
72603;SDS011;60645;56.968;24.196;2022-08-18T17:04:22;16.70;;;5.53;;
72603;SDS011;60645;56.968;24.196;2022-08-18T17:06:50;16.20;;;5.85;;
72603;SDS011;60645;56.968;24.196;2022-08-18T17:09:17;12.20;;;5.47;;
72603;SDS011;60645;56.968;24.196;2022-08-18T17:11:46;14.57;;;5.93;;
72603;SDS011;60645;56.968;24.196;2022-08-18T17:14:17;11.10;;;5.20;;
72603;SDS011;60645;56.968;24.196;2022-08-18T17:16:50;15.38;;;6.28;;
72603;SDS011;60645;56.968;24.196;2022-08-18T17:19:24;14.68;;;7.18;;
72603;SDS011;60645;56.968;24.196;2022-08-18T17:21:55;15.27;;;6.35;;
72603;SDS011;60645;56.968;24.196;2022-08-18T17:24:22;17.45;;;7.55;;
72603;SDS011;60645;56.968;24.196;2022-08-18T17:27:08;19.00;;;7.90;;
72603;SDS011;60645;56.968;24.196;2022-08-18T17:32:28;20.00;;;7.15;;
72603;SDS011;60645;56.968;24.196;2022-08-18T17:35:11;16.33;;;7.90;;
72603;SDS011;60645;56.968;24.196;2022-08-18T17:37:42;18.48;;;7.15;;
72603;SDS011;60645;56.968;24.196;2022-08-18T17:42:54;13.68;;;6.78;;
72603;SDS011;60645;56.968;24.196;2022-08-18T17:45:22;12.98;;;6.40;;
72603;SDS011;60645;56.968;24.196;2022-08-18T17:47:57;11.77;;;7.43;;
72603;SDS011;60645;56.968;24.196;2022-08-18T17:50:33;27.02;;;6.90;;
72603;SDS011;60645;56.968;24.196;2022-08-18T17:53:23;13.90;;;6.90;;
72603;SDS011;60645;56.968;24.196;2022-08-18T17:56:01;13.93;;;6.38;;
72603;SDS011;60645;56.968;24.196;2022-08-18T18:01:00;20.73;;;7.28;;
72603;SDS011;60645;56.968;24.196;2022-08-18T18:03:28;18.77;;;6.90;;
72603;SDS011;60645;56.968;24.196;2022-08-18T18:06:01;16.95;;;7.55;;
72603;SDS011;60645;56.968;24.196;2022-08-18T18:08:57;13.48;;;7.18;;